Portada
METAR-TAF:

METAR-TAF

Aeroports :

Terol, Espanya

latitud: 40-24-43N, longitud: 01-13-03W, altitud: 1030 m

Observació

L'informe es va fer fa 35 minuts, a les 09:30 UTC
Vent 6 kt del Sud-Est
Temperatura 19°C
Humitat 78%
Pressió 1017 hPa
Visibilitat 10 km o més
sense núvols per sota de 1500 mi sense presència de cumulonimbus.

METAR: LETL 190930Z AUTO 14006KT CAVOK 19/15 Q1017

Hora: 12:05 (10:05 UTC)


TAF: manca

Observacions i pronòstics meteorològics de més de 4000 aeroports (METAR i TAF).

Les estacions disponibles són els punts grocs i vermells al mapa.

Posi el ratolí al punt desitjat per veure el nom de l'estació.

Feu clic per veure les observacions i els pronòstics meteorològics.

Per canviar el mapa: feu clic els botons verds amb una creu de color negre per apropar; al botó verd amb un guió per allunyar la imatge; o en les fletxes verdes per a mapes adjacents.


METAR-TAF: